sensor_id;sensor_type;location;lat;lon;timestamp;temperature;humidity
2723;DHT22;1369;53.216;10.396;2023-06-10T00:01:26;16.00;99.90
2723;DHT22;1369;53.216;10.396;2023-06-10T00:03:53;16.10;99.90
2723;DHT22;1369;53.216;10.396;2023-06-10T00:06:18;16.00;99.90
2723;DHT22;1369;53.216;10.396;2023-06-10T00:08:44;16.10;99.90
2723;DHT22;1369;53.216;10.396;2023-06-10T00:11:12;16.00;99.90
2723;DHT22;1369;53.216;10.396;2023-06-10T00:13:38;15.90;99.90
2723;DHT22;1369;53.216;10.396;2023-06-10T00:16:03;16.00;99.90
2723;DHT22;1369;53.216;10.396;2023-06-10T00:18:29;16.00;99.90
2723;DHT22;1369;53.216;10.396;2023-06-10T00:20:57;15.80;99.90
2723;DHT22;1369;53.216;10.396;2023-06-10T00:23:22;15.80;99.90
2723;DHT22;1369;53.216;10.396;2023-06-10T00:25:50;15.80;99.90
2723;DHT22;1369;53.216;10.396;2023-06-10T00:28:15;15.80;99.90
2723;DHT22;1369;53.216;10.396;2023-06-10T00:30:41;15.80;99.90
2723;DHT22;1369;53.216;10.396;2023-06-10T00:33:06;15.80;99.90
2723;DHT22;1369;53.216;10.396;2023-06-10T00:35:32;15.80;99.90
2723;DHT22;1369;53.216;10.396;2023-06-10T00:37:57;15.80;99.90
2723;DHT22;1369;53.216;10.396;2023-06-10T00:40:23;15.80;99.90
2723;DHT22;1369;53.216;10.396;2023-06-10T00:42:48;15.90;99.90
2723;DHT22;1369;53.216;10.396;2023-06-10T00:45:14;16.00;99.90
2723;DHT22;1369;53.216;10.396;2023-06-10T00:47:39;16.00;99.90
2723;DHT22;1369;53.216;10.396;2023-06-10T00:50:06;15.90;99.90
2723;DHT22;1369;53.216;10.396;2023-06-10T00:52:33;15.80;99.90
2723;DHT22;1369;53.216;10.396;2023-06-10T00:55:00;15.90;99.90
2723;DHT22;1369;53.216;10.396;2023-06-10T00:57:26;15.90;99.90
2723;DHT22;1369;53.216;10.396;2023-06-10T00:59:52;15.90;99.90
2723;DHT22;1369;53.216;10.396;2023-06-10T01:02:17;15.80;99.90
2723;DHT22;1369;53.216;10.396;2023-06-10T01:04:43;15.80;99.90
2723;DHT22;1369;53.216;10.396;2023-06-10T01:07:27;15.90;99.90
2723;DHT22;1369;53.216;10.396;2023-06-10T01:10:09;15.90;99.90
2723;DHT22;1369;53.216;10.396;2023-06-10T01:12:54;16.00;99.90
2723;DHT22;1369;53.216;10.396;2023-06-10T01:15:21;16.10;99.90
2723;DHT22;1369;53.216;10.396;2023-06-10T01:18:02;16.20;99.90
2723;DHT22;1369;53.216;10.396;2023-06-10T01:20:32;16.30;99.90
2723;DHT22;1369;53.216;10.396;2023-06-10T01:22:59;16.40;99.90
2723;DHT22;1369;53.216;10.396;2023-06-10T01:25:26;16.40;99.90
2723;DHT22;1369;53.216;10.396;2023-06-10T01:30:48;16.40;99.90
2723;DHT22;1369;53.216;10.396;2023-06-10T01:33:27;16.20;99.90
2723;DHT22;1369;53.216;10.396;2023-06-10T01:35:53;16.10;99.90
2723;DHT22;1369;53.216;10.396;2023-06-10T01:38:20;16.10;99.90
2723;DHT22;1369;53.216;10.396;2023-06-10T01:40:48;16.10;99.90
2723;DHT22;1369;53.216;10.396;2023-06-10T01:43:14;16.10;99.90
2723;DHT22;1369;53.216;10.396;2023-06-10T01:45:39;16.00;99.90
2723;DHT22;1369;53.216;10.396;2023-06-10T01:48:05;16.10;99.90
2723;DHT22;1369;53.216;10.396;2023-06-10T01:50:30;16.20;99.90
2723;DHT22;1369;53.216;10.396;2023-06-10T01:52:57;16.20;99.90
2723;DHT22;1369;53.216;10.396;2023-06-10T01:55:23;16.20;99.90
2723;DHT22;1369;53.216;10.396;2023-06-10T01:57:49;16.10;99.90
2723;DHT22;1369;53.216;10.396;2023-06-10T02:00:15;15.90;99.90
2723;DHT22;1369;53.216;10.396;2023-06-10T02:02:40;15.90;99.90
2723;DHT22;1369;53.216;10.396;2023-06-10T02:08:28;16.00;99.90
2723;DHT22;1369;53.216;10.396;2023-06-10T02:10:54;15.90;99.90
2723;DHT22;1369;53.216;10.396;2023-06-10T02:13:19;15.70;99.90
2723;DHT22;1369;53.216;10.396;2023-06-10T02:15:45;15.70;99.90
2723;DHT22;1369;53.216;10.396;2023-06-10T02:18:11;15.80;99.90
2723;DHT22;1369;53.216;10.396;2023-06-10T02:20:37;15.70;99.90
2723;DHT22;1369;53.216;10.396;2023-06-10T02:23:03;15.60;99.90
2723;DHT22;1369;53.216;10.396;2023-06-10T02:25:28;15.70;99.90
2723;DHT22;1369;53.216;10.396;2023-06-10T02:27:54;15.70;99.90
2723;DHT22;1369;53.216;10.396;2023-06-10T02:30:19;15.70;99.90
2723;DHT22;1369;53.216;10.396;2023-06-10T02:32:45;15.60;99.90
2723;DHT22;1369;53.216;10.396;2023-06-10T02:35:16;15.50;99.90
2723;DHT22;1369;53.216;10.396;2023-06-10T02:37:42;15.50;99.90
2723;DHT22;1369;53.216;10.396;2023-06-10T02:40:08;15.60;99.90
2723;DHT22;1369;53.216;10.396;2023-06-10T02:42:34;15.00;99.90
2723;DHT22;1369;53.216;10.396;2023-06-10T02:45:00;15.20;99.90
2723;DHT22;1369;53.216;10.396;2023-06-10T02:47:26;15.30;99.90
2723;DHT22;1369;53.216;10.396;2023-06-10T02:49:51;15.20;99.90
2723;DHT22;1369;53.216;10.396;2023-06-10T02:52:17;15.20;99.90
2723;DHT22;1369;53.216;10.396;2023-06-10T02:54:42;15.20;99.90
2723;DHT22;1369;53.216;10.396;2023-06-10T02:57:08;15.30;99.90
2723;DHT22;1369;53.216;10.396;2023-06-10T02:59:35;15.40;99.90
2723;DHT22;1369;53.216;10.396;2023-06-10T03:02:00;15.50;99.90
2723;DHT22;1369;53.216;10.396;2023-06-10T03:04:26;15.50;99.90
2723;DHT22;1369;53.216;10.396;2023-06-10T03:06:54;15.60;99.90
2723;DHT22;1369;53.216;10.396;2023-06-10T03:09:20;15.60;99.90
2723;DHT22;1369;53.216;10.396;2023-06-10T03:11:45;15.60;99.90
2723;DHT22;1369;53.216;10.396;2023-06-10T03:14:11;15.50;99.90
2723;DHT22;1369;53.216;10.396;2023-06-10T03:16:36;15.50;99.90
2723;DHT22;1369;53.216;10.396;2023-06-10T03:19:06;15.60;99.90
2723;DHT22;1369;53.216;10.396;2023-06-10T03:21:31;15.60;99.90
2723;DHT22;1369;53.216;10.396;2023-06-10T03:23:57;15.60;99.90
2723;DHT22;1369;53.216;10.396;2023-06-10T03:26:22;15.70;99.90
2723;DHT22;1369;53.216;10.396;2023-06-10T03:28:48;15.70;99.90
2723;DHT22;1369;53.216;10.396;2023-06-10T03:31:14;15.60;99.90
2723;DHT22;1369;53.216;10.396;2023-06-10T03:33:42;15.60;99.90
2723;DHT22;1369;53.216;10.396;2023-06-10T03:36:07;15.60;99.90
2723;DHT22;1369;53.216;10.396;2023-06-10T03:38:33;15.70;99.90
2723;DHT22;1369;53.216;10.396;2023-06-10T03:40:58;15.70;99.90
2723;DHT22;1369;53.216;10.396;2023-06-10T03:43:24;15.70;99.90
2723;DHT22;1369;53.216;10.396;2023-06-10T03:45:49;15.70;99.90
2723;DHT22;1369;53.216;10.396;2023-06-10T03:48:15;15.70;99.90
2723;DHT22;1369;53.216;10.396;2023-06-10T03:50:40;15.80;99.90
2723;DHT22;1369;53.216;10.396;2023-06-10T03:53:06;15.70;99.90
2723;DHT22;1369;53.216;10.396;2023-06-10T03:55:31;15.50;99.90
2723;DHT22;1369;53.216;10.396;2023-06-10T03:57:57;15.50;99.90
2723;DHT22;1369;53.216;10.396;2023-06-10T04:00:23;15.30;99.90
2723;DHT22;1369;53.216;10.396;2023-06-10T04:02:48;15.50;99.90
2723;DHT22;1369;53.216;10.396;2023-06-10T04:05:16;15.30;99.90
2723;DHT22;1369;53.216;10.396;2023-06-10T04:07:43;15.40;99.90
2723;DHT22;1369;53.216;10.396;2023-06-10T04:10:10;15.40;99.90
2723;DHT22;1369;53.216;10.396;2023-06-10T04:12:37;15.50;99.90
2723;DHT22;1369;53.216;10.396;2023-06-10T04:15:04;15.60;99.90
2723;DHT22;1369;53.216;10.396;2023-06-10T04:17:29;15.80;99.90
2723;DHT22;1369;53.216;10.396;2023-06-10T04:19:55;15.80;99.90
2723;DHT22;1369;53.216;10.396;2023-06-10T04:22:21;15.80;99.90
2723;DHT22;1369;53.216;10.396;2023-06-10T04:24:46;16.00;99.90
2723;DHT22;1369;53.216;10.396;2023-06-10T04:27:12;16.00;99.90
2723;DHT22;1369;53.216;10.396;2023-06-10T04:29:38;16.00;99.90
2723;DHT22;1369;53.216;10.396;2023-06-10T04:32:03;15.90;99.90
2723;DHT22;1369;53.216;10.396;2023-06-10T04:34:30;15.90;99.90
2723;DHT22;1369;53.216;10.396;2023-06-10T04:36:56;15.70;99.90
2723;DHT22;1369;53.216;10.396;2023-06-10T04:39:22;15.80;99.90
2723;DHT22;1369;53.216;10.396;2023-06-10T04:41:47;15.90;99.90
2723;DHT22;1369;53.216;10.396;2023-06-10T04:44:13;15.80;99.90
2723;DHT22;1369;53.216;10.396;2023-06-10T04:46:39;15.60;99.90
2723;DHT22;1369;53.216;10.396;2023-06-10T04:49:04;15.60;99.90
2723;DHT22;1369;53.216;10.396;2023-06-10T04:51:31;15.50;99.90
2723;DHT22;1369;53.216;10.396;2023-06-10T04:53:57;15.70;99.90
2723;DHT22;1369;53.216;10.396;2023-06-10T04:56:23;16.00;99.90
2723;DHT22;1369;53.216;10.396;2023-06-10T04:58:49;16.20;99.90
2723;DHT22;1369;53.216;10.396;2023-06-10T05:01:14;16.30;99.90
2723;DHT22;1369;53.216;10.396;2023-06-10T05:03:40;16.40;99.90
2723;DHT22;1369;53.216;10.396;2023-06-10T05:06:05;16.30;99.90
2723;DHT22;1369;53.216;10.396;2023-06-10T05:08:31;16.50;99.90
2723;DHT22;1369;53.216;10.396;2023-06-10T05:10:56;16.40;99.90
2723;DHT22;1369;53.216;10.396;2023-06-10T05:13:23;16.40;99.90
2723;DHT22;1369;53.216;10.396;2023-06-10T05:15:49;16.50;99.90
2723;DHT22;1369;53.216;10.396;2023-06-10T05:18:14;16.50;99.90
2723;DHT22;1369;53.216;10.396;2023-06-10T05:20:40;16.60;99.90
2723;DHT22;1369;53.216;10.396;2023-06-10T05:23:05;16.80;99.90
2723;DHT22;1369;53.216;10.396;2023-06-10T05:25:32;16.70;99.90
2723;DHT22;1369;53.216;10.396;2023-06-10T05:27:58;16.70;99.90
2723;DHT22;1369;53.216;10.396;2023-06-10T05:30:24;16.90;99.90
2723;DHT22;1369;53.216;10.396;2023-06-10T05:32:50;17.00;99.90
2723;DHT22;1369;53.216;10.396;2023-06-10T05:35:16;17.20;99.90
2723;DHT22;1369;53.216;10.396;2023-06-10T05:37:42;17.40;99.90
2723;DHT22;1369;53.216;10.396;2023-06-10T05:40:08;17.40;99.90
2723;DHT22;1369;53.216;10.396;2023-06-10T05:42:34;17.40;99.90
2723;DHT22;1369;53.216;10.396;2023-06-10T05:44:59;17.60;99.90
2723;DHT22;1369;53.216;10.396;2023-06-10T05:47:25;17.60;99.90
2723;DHT22;1369;53.216;10.396;2023-06-10T05:49:50;17.70;99.90
2723;DHT22;1369;53.216;10.396;2023-06-10T05:52:17;17.90;99.90
2723;DHT22;1369;53.216;10.396;2023-06-10T05:54:43;18.30;99.90
2723;DHT22;1369;53.216;10.396;2023-06-10T05:57:09;18.50;99.90
2723;DHT22;1369;53.216;10.396;2023-06-10T05:59:35;18.70;99.90
2723;DHT22;1369;53.216;10.396;2023-06-10T06:02:01;19.00;99.90
2723;DHT22;1369;53.216;10.396;2023-06-10T06:04:26;18.90;99.90
2723;DHT22;1369;53.216;10.396;2023-06-10T06:06:52;18.50;99.90
2723;DHT22;1369;53.216;10.396;2023-06-10T06:09:17;18.20;99.90
2723;DHT22;1369;53.216;10.396;2023-06-10T06:11:43;17.60;99.90
2723;DHT22;1369;53.216;10.396;2023-06-10T06:14:08;17.30;99.90
2723;DHT22;1369;53.216;10.396;2023-06-10T06:16:34;17.20;99.90
2723;DHT22;1369;53.216;10.396;2023-06-10T06:18:59;17.20;99.90
2723;DHT22;1369;53.216;10.396;2023-06-10T06:21:25;17.00;99.90
2723;DHT22;1369;53.216;10.396;2023-06-10T06:23:50;16.80;99.90
2723;DHT22;1369;53.216;10.396;2023-06-10T06:26:16;16.70;99.90
2723;DHT22;1369;53.216;10.396;2023-06-10T06:28:41;16.60;99.90
2723;DHT22;1369;53.216;10.396;2023-06-10T06:31:07;16.50;99.90
2723;DHT22;1369;53.216;10.396;2023-06-10T06:33:32;16.50;99.90
2723;DHT22;1369;53.216;10.396;2023-06-10T06:35:58;16.60;99.90
2723;DHT22;1369;53.216;10.396;2023-06-10T06:38:25;16.60;99.90
2723;DHT22;1369;53.216;10.396;2023-06-10T06:40:51;16.50;99.90
2723;DHT22;1369;53.216;10.396;2023-06-10T06:43:16;16.40;99.90
2723;DHT22;1369;53.216;10.396;2023-06-10T06:45:44;16.30;99.90
2723;DHT22;1369;53.216;10.396;2023-06-10T06:48:11;16.40;99.90
2723;DHT22;1369;53.216;10.396;2023-06-10T06:50:36;16.50;99.90
2723;DHT22;1369;53.216;10.396;2023-06-10T06:53:03;16.50;99.90
2723;DHT22;1369;53.216;10.396;2023-06-10T06:55:28;16.60;99.90
2723;DHT22;1369;53.216;10.396;2023-06-10T06:57:54;16.70;99.90
2723;DHT22;1369;53.216;10.396;2023-06-10T07:00:19;16.70;99.90
2723;DHT22;1369;53.216;10.396;2023-06-10T07:02:45;16.80;99.90
2723;DHT22;1369;53.216;10.396;2023-06-10T07:05:10;17.20;99.90
2723;DHT22;1369;53.216;10.396;2023-06-10T07:07:36;17.70;99.90
2723;DHT22;1369;53.216;10.396;2023-06-10T07:10:02;19.00;99.90
2723;DHT22;1369;53.216;10.396;2023-06-10T07:12:27;21.90;99.90
2723;DHT22;1369;53.216;10.396;2023-06-10T07:14:52;24.70;99.90
2723;DHT22;1369;53.216;10.396;2023-06-10T07:17:18;27.40;99.90
2723;DHT22;1369;53.216;10.396;2023-06-10T07:19:45;29.10;99.90
2723;DHT22;1369;53.216;10.396;2023-06-10T07:22:10;31.00;99.90
2723;DHT22;1369;53.216;10.396;2023-06-10T07:24:36;32.50;99.90
2723;DHT22;1369;53.216;10.396;2023-06-10T07:27:01;33.60;97.90
2723;DHT22;1369;53.216;10.396;2023-06-10T07:29:27;34.10;92.70
2723;DHT22;1369;53.216;10.396;2023-06-10T07:31:52;34.70;91.70
2723;DHT22;1369;53.216;10.396;2023-06-10T07:34:18;35.20;90.30
2723;DHT22;1369;53.216;10.396;2023-06-10T07:36:45;35.90;82.40
2723;DHT22;1369;53.216;10.396;2023-06-10T07:39:10;35.00;80.70
2723;DHT22;1369;53.216;10.396;2023-06-10T07:41:36;34.60;80.10
2723;DHT22;1369;53.216;10.396;2023-06-10T07:44:02;35.20;80.90
2723;DHT22;1369;53.216;10.396;2023-06-10T07:46:27;35.70;78.50
2723;DHT22;1369;53.216;10.396;2023-06-10T07:48:54;35.60;76.30
2723;DHT22;1369;53.216;10.396;2023-06-10T07:51:20;35.30;76.20
2723;DHT22;1369;53.216;10.396;2023-06-10T07:53:46;34.80;74.90
2723;DHT22;1369;53.216;10.396;2023-06-10T07:56:11;34.50;76.60
2723;DHT22;1369;53.216;10.396;2023-06-10T07:58:37;34.30;73.80
2723;DHT22;1369;53.216;10.396;2023-06-10T08:01:02;34.20;76.80
2723;DHT22;1369;53.216;10.396;2023-06-10T08:03:28;34.40;76.10
2723;DHT22;1369;53.216;10.396;2023-06-10T08:05:53;34.50;72.20
2723;DHT22;1369;53.216;10.396;2023-06-10T08:08:19;33.60;73.50
2723;DHT22;1369;53.216;10.396;2023-06-10T08:10:44;34.00;75.20
2723;DHT22;1369;53.216;10.396;2023-06-10T08:13:10;34.90;73.60
2723;DHT22;1369;53.216;10.396;2023-06-10T08:15:35;35.40;72.90
2723;DHT22;1369;53.216;10.396;2023-06-10T08:18:01;35.30;70.50
2723;DHT22;1369;53.216;10.396;2023-06-10T08:20:26;34.40;71.00
2723;DHT22;1369;53.216;10.396;2023-06-10T08:22:52;34.00;70.10
2723;DHT22;1369;53.216;10.396;2023-06-10T08:25:17;34.00;72.90
2723;DHT22;1369;53.216;10.396;2023-06-10T08:27:43;32.60;70.30
2723;DHT22;1369;53.216;10.396;2023-06-10T08:30:09;33.10;74.40
2723;DHT22;1369;53.216;10.396;2023-06-10T08:32:36;32.70;74.60
2723;DHT22;1369;53.216;10.396;2023-06-10T08:35:02;33.40;74.70
2723;DHT22;1369;53.216;10.396;2023-06-10T08:37:28;33.60;72.30
2723;DHT22;1369;53.216;10.396;2023-06-10T08:39:53;33.70;71.80
2723;DHT22;1369;53.216;10.396;2023-06-10T08:42:33;33.60;73.00
2723;DHT22;1369;53.216;10.396;2023-06-10T08:45:01;33.40;73.20
2723;DHT22;1369;53.216;10.396;2023-06-10T08:47:29;33.60;72.70
2723;DHT22;1369;53.216;10.396;2023-06-10T08:50:03;33.10;74.80
2723;DHT22;1369;53.216;10.396;2023-06-10T08:52:34;32.00;74.10
2723;DHT22;1369;53.216;10.396;2023-06-10T08:55:03;31.40;76.80
2723;DHT22;1369;53.216;10.396;2023-06-10T08:57:30;31.90;79.80
2723;DHT22;1369;53.216;10.396;2023-06-10T08:59:57;31.90;78.70
2723;DHT22;1369;53.216;10.396;2023-06-10T09:02:24;31.20;74.90
2723;DHT22;1369;53.216;10.396;2023-06-10T09:04:50;31.10;79.30
2723;DHT22;1369;53.216;10.396;2023-06-10T09:07:16;30.20;80.70
2723;DHT22;1369;53.216;10.396;2023-06-10T09:09:43;29.40;81.40
2723;DHT22;1369;53.216;10.396;2023-06-10T09:12:09;28.60;83.30
2723;DHT22;1369;53.216;10.396;2023-06-10T09:14:35;28.10;84.70
2723;DHT22;1369;53.216;10.396;2023-06-10T09:17:03;28.30;87.60
2723;DHT22;1369;53.216;10.396;2023-06-10T09:19:29;28.40;87.60
2723;DHT22;1369;53.216;10.396;2023-06-10T09:21:55;28.30;88.40
2723;DHT22;1369;53.216;10.396;2023-06-10T09:24:24;28.50;88.50
2723;DHT22;1369;53.216;10.396;2023-06-10T09:26:49;27.70;86.80
2723;DHT22;1369;53.216;10.396;2023-06-10T09:29:16;27.60;90.90
2723;DHT22;1369;53.216;10.396;2023-06-10T09:31:43;27.40;90.80
2723;DHT22;1369;53.216;10.396;2023-06-10T09:34:14;27.40;91.80
2723;DHT22;1369;53.216;10.396;2023-06-10T09:36:41;27.40;91.20
2723;DHT22;1369;53.216;10.396;2023-06-10T09:39:17;27.40;91.60
2723;DHT22;1369;53.216;10.396;2023-06-10T09:41:43;27.30;91.90
2723;DHT22;1369;53.216;10.396;2023-06-10T09:44:18;26.40;91.50
2723;DHT22;1369;53.216;10.396;2023-06-10T09:46:48;26.10;92.80
2723;DHT22;1369;53.216;10.396;2023-06-10T09:49:16;26.10;93.30
2723;DHT22;1369;53.216;10.396;2023-06-10T09:51:52;26.40;94.00
2723;DHT22;1369;53.216;10.396;2023-06-10T09:54:18;26.20;93.80
2723;DHT22;1369;53.216;10.396;2023-06-10T09:56:47;26.50;94.80
2723;DHT22;1369;53.216;10.396;2023-06-10T09:59:13;26.70;94.50
2723;DHT22;1369;53.216;10.396;2023-06-10T10:01:39;27.00;94.70
2723;DHT22;1369;53.216;10.396;2023-06-10T10:04:04;27.40;94.60
2723;DHT22;1369;53.216;10.396;2023-06-10T10:06:30;27.20;93.10
2723;DHT22;1369;53.216;10.396;2023-06-10T10:08:56;26.50;93.50
2723;DHT22;1369;53.216;10.396;2023-06-10T10:11:22;26.60;94.50
2723;DHT22;1369;53.216;10.396;2023-06-10T10:13:50;26.70;95.30
2723;DHT22;1369;53.216;10.396;2023-06-10T10:16:37;26.90;94.90
2723;DHT22;1369;53.216;10.396;2023-06-10T10:19:20;27.20;94.70
2723;DHT22;1369;53.216;10.396;2023-06-10T10:22:10;27.40;94.90
2723;DHT22;1369;53.216;10.396;2023-06-10T10:24:45;27.70;94.70
2723;DHT22;1369;53.216;10.396;2023-06-10T10:27:25;28.00;94.70
2723;DHT22;1369;53.216;10.396;2023-06-10T10:29:54;28.20;94.80
2723;DHT22;1369;53.216;10.396;2023-06-10T10:32:35;28.30;95.00
2723;DHT22;1369;53.216;10.396;2023-06-10T10:35:09;28.20;93.70
2723;DHT22;1369;53.216;10.396;2023-06-10T10:37:37;28.00;94.00
2723;DHT22;1369;53.216;10.396;2023-06-10T10:40:05;27.90;94.20
2723;DHT22;1369;53.216;10.396;2023-06-10T10:42:32;27.90;94.50
2723;DHT22;1369;53.216;10.396;2023-06-10T10:44:59;27.90;94.50
2723;DHT22;1369;53.216;10.396;2023-06-10T10:47:27;28.00;94.50
2723;DHT22;1369;53.216;10.396;2023-06-10T10:49:57;28.00;94.60
2723;DHT22;1369;53.216;10.396;2023-06-10T10:52:27;27.90;94.20
2723;DHT22;1369;53.216;10.396;2023-06-10T10:54:54;28.00;94.60
2723;DHT22;1369;53.216;10.396;2023-06-10T10:57:24;28.30;95.00
2723;DHT22;1369;53.216;10.396;2023-06-10T10:59:55;28.50;94.80
2723;DHT22;1369;53.216;10.396;2023-06-10T11:02:45;28.50;94.50
2723;DHT22;1369;53.216;10.396;2023-06-10T11:05:17;28.40;94.10
2723;DHT22;1369;53.216;10.396;2023-06-10T11:07:53;28.10;94.50
2723;DHT22;1369;53.216;10.396;2023-06-10T11:10:33;28.20;94.40
2723;DHT22;1369;53.216;10.396;2023-06-10T11:13:05;28.40;95.40
2723;DHT22;1369;53.216;10.396;2023-06-10T11:15:33;28.30;94.10
2723;DHT22;1369;53.216;10.396;2023-06-10T11:26:15;28.30;95.00
2723;DHT22;1369;53.216;10.396;2023-06-10T11:31:32;28.80;94.80
2723;DHT22;1369;53.216;10.396;2023-06-10T11:34:00;29.00;95.30
2723;DHT22;1369;53.216;10.396;2023-06-10T11:36:28;29.00;93.70
2723;DHT22;1369;53.216;10.396;2023-06-10T11:39:05;28.60;92.50
2723;DHT22;1369;53.216;10.396;2023-06-10T11:41:32;28.60;93.30
2723;DHT22;1369;53.216;10.396;2023-06-10T11:44:20;28.50;92.90
2723;DHT22;1369;53.216;10.396;2023-06-10T11:46:48;28.60;93.40
2723;DHT22;1369;53.216;10.396;2023-06-10T11:49:15;28.80;93.80
2723;DHT22;1369;53.216;10.396;2023-06-10T11:51:41;28.80;93.30
2723;DHT22;1369;53.216;10.396;2023-06-10T11:54:14;28.90;94.20
2723;DHT22;1369;53.216;10.396;2023-06-10T11:56:41;29.10;92.70
2723;DHT22;1369;53.216;10.396;2023-06-10T11:59:07;29.10;92.90
2723;DHT22;1369;53.216;10.396;2023-06-10T12:01:36;29.00;92.00
2723;DHT22;1369;53.216;10.396;2023-06-10T12:04:04;29.20;92.80
2723;DHT22;1369;53.216;10.396;2023-06-10T12:06:45;29.30;92.90
2723;DHT22;1369;53.216;10.396;2023-06-10T12:09:24;29.30;93.20
2723;DHT22;1369;53.216;10.396;2023-06-10T12:12:08;29.30;91.40
2723;DHT22;1369;53.216;10.396;2023-06-10T12:14:56;29.00;92.30
2723;DHT22;1369;53.216;10.396;2023-06-10T12:19:51;29.30;92.00
2723;DHT22;1369;53.216;10.396;2023-06-10T12:22:17;29.30;92.70
2723;DHT22;1369;53.216;10.396;2023-06-10T12:24:56;29.30;92.60
2723;DHT22;1369;53.216;10.396;2023-06-10T12:27:25;29.60;92.70
2723;DHT22;1369;53.216;10.396;2023-06-10T12:29:54;29.50;90.60
2723;DHT22;1369;53.216;10.396;2023-06-10T12:35:05;29.10;90.40
2723;DHT22;1369;53.216;10.396;2023-06-10T12:37:31;29.10;90.90
2723;DHT22;1369;53.216;10.396;2023-06-10T12:40:00;29.30;91.20
2723;DHT22;1369;53.216;10.396;2023-06-10T12:42:26;29.30;91.90
2723;DHT22;1369;53.216;10.396;2023-06-10T12:44:55;29.50;91.20
2723;DHT22;1369;53.216;10.396;2023-06-10T12:47:32;29.20;90.60
2723;DHT22;1369;53.216;10.396;2023-06-10T12:50:01;29.30;91.20
2723;DHT22;1369;53.216;10.396;2023-06-10T12:52:27;29.50;90.50
2723;DHT22;1369;53.216;10.396;2023-06-10T12:54:53;29.60;90.80
2723;DHT22;1369;53.216;10.396;2023-06-10T12:57:19;29.60;90.80
2723;DHT22;1369;53.216;10.396;2023-06-10T12:59:45;29.60;90.80
2723;DHT22;1369;53.216;10.396;2023-06-10T13:02:15;29.70;91.40
2723;DHT22;1369;53.216;10.396;2023-06-10T13:04:43;29.70;90.40
2723;DHT22;1369;53.216;10.396;2023-06-10T13:07:08;29.80;90.70
2723;DHT22;1369;53.216;10.396;2023-06-10T13:09:35;29.80;88.70
2723;DHT22;1369;53.216;10.396;2023-06-10T13:12:01;29.70;90.30
2723;DHT22;1369;53.216;10.396;2023-06-10T13:14:26;29.80;90.60
2723;DHT22;1369;53.216;10.396;2023-06-10T13:16:54;29.90;90.00
2723;DHT22;1369;53.216;10.396;2023-06-10T13:19:20;29.90;89.40
2723;DHT22;1369;53.216;10.396;2023-06-10T13:21:47;30.10;90.80
2723;DHT22;1369;53.216;10.396;2023-06-10T13:24:12;30.10;89.10
2723;DHT22;1369;53.216;10.396;2023-06-10T13:26:38;30.10;88.50
2723;DHT22;1369;53.216;10.396;2023-06-10T13:29:03;30.10;88.50
2723;DHT22;1369;53.216;10.396;2023-06-10T13:31:29;30.20;89.20
2723;DHT22;1369;53.216;10.396;2023-06-10T13:33:55;30.20;88.70
2723;DHT22;1369;53.216;10.396;2023-06-10T13:36:20;30.30;89.40
2723;DHT22;1369;53.216;10.396;2023-06-10T13:38:46;30.10;86.70
2723;DHT22;1369;53.216;10.396;2023-06-10T13:41:13;30.20;89.90
2723;DHT22;1369;53.216;10.396;2023-06-10T13:43:38;30.40;89.20
2723;DHT22;1369;53.216;10.396;2023-06-10T13:46:04;30.50;89.00
2723;DHT22;1369;53.216;10.396;2023-06-10T13:48:30;30.70;89.80
2723;DHT22;1369;53.216;10.396;2023-06-10T13:50:56;30.70;86.30
2723;DHT22;1369;53.216;10.396;2023-06-10T13:53:21;30.40;84.40
2723;DHT22;1369;53.216;10.396;2023-06-10T13:55:47;30.00;86.30
2723;DHT22;1369;53.216;10.396;2023-06-10T13:58:12;29.90;85.20
2723;DHT22;1369;53.216;10.396;2023-06-10T14:00:38;29.80;86.10
2723;DHT22;1369;53.216;10.396;2023-06-10T14:03:03;29.70;88.60
2723;DHT22;1369;53.216;10.396;2023-06-10T14:05:29;29.40;86.90
2723;DHT22;1369;53.216;10.396;2023-06-10T14:07:54;29.20;87.10
2723;DHT22;1369;53.216;10.396;2023-06-10T14:10:21;29.30;88.20
2723;DHT22;1369;53.216;10.396;2023-06-10T14:12:46;29.60;87.50
2723;DHT22;1369;53.216;10.396;2023-06-10T14:15:12;29.70;84.70
2723;DHT22;1369;53.216;10.396;2023-06-10T14:17:37;30.00;85.50
2723;DHT22;1369;53.216;10.396;2023-06-10T14:20:03;30.00;83.50
2723;DHT22;1369;53.216;10.396;2023-06-10T14:22:29;30.00;83.20
2723;DHT22;1369;53.216;10.396;2023-06-10T14:24:55;30.10;82.80
2723;DHT22;1369;53.216;10.396;2023-06-10T14:27:20;30.00;82.60
2723;DHT22;1369;53.216;10.396;2023-06-10T14:29:46;30.00;82.90
2723;DHT22;1369;53.216;10.396;2023-06-10T14:32:11;29.80;83.00
2723;DHT22;1369;53.216;10.396;2023-06-10T14:34:37;29.80;85.20
2723;DHT22;1369;53.216;10.396;2023-06-10T14:37:04;29.80;84.20
2723;DHT22;1369;53.216;10.396;2023-06-10T14:39:32;29.80;83.70
2723;DHT22;1369;53.216;10.396;2023-06-10T14:41:58;29.90;82.80
2723;DHT22;1369;53.216;10.396;2023-06-10T14:44:23;29.90;85.20
2723;DHT22;1369;53.216;10.396;2023-06-10T14:46:49;29.80;82.40
2723;DHT22;1369;53.216;10.396;2023-06-10T14:49:14;30.00;85.10
2723;DHT22;1369;53.216;10.396;2023-06-10T14:51:40;29.80;82.30
2723;DHT22;1369;53.216;10.396;2023-06-10T14:54:06;30.00;83.80
2723;DHT22;1369;53.216;10.396;2023-06-10T14:56:31;30.00;83.90
2723;DHT22;1369;53.216;10.396;2023-06-10T14:58:57;30.20;83.50
2723;DHT22;1369;53.216;10.396;2023-06-10T15:01:22;30.20;82.90
2723;DHT22;1369;53.216;10.396;2023-06-10T15:03:48;30.30;81.50
2723;DHT22;1369;53.216;10.396;2023-06-10T15:06:13;30.20;82.00
2723;DHT22;1369;53.216;10.396;2023-06-10T15:08:42;30.20;83.50
2723;DHT22;1369;53.216;10.396;2023-06-10T15:11:07;30.10;80.90
2723;DHT22;1369;53.216;10.396;2023-06-10T15:13:33;29.90;82.50
2723;DHT22;1369;53.216;10.396;2023-06-10T15:15:58;29.80;82.30
2723;DHT22;1369;53.216;10.396;2023-06-10T15:18:24;29.70;83.20
2723;DHT22;1369;53.216;10.396;2023-06-10T15:20:50;29.60;84.70
2723;DHT22;1369;53.216;10.396;2023-06-10T15:23:15;29.40;83.80
2723;DHT22;1369;53.216;10.396;2023-06-10T15:25:41;29.20;86.30
2723;DHT22;1369;53.216;10.396;2023-06-10T15:28:07;29.20;87.60
2723;DHT22;1369;53.216;10.396;2023-06-10T15:30:32;29.30;85.80
2723;DHT22;1369;53.216;10.396;2023-06-10T15:32:58;29.30;81.90
2723;DHT22;1369;53.216;10.396;2023-06-10T15:35:23;29.30;83.00
2723;DHT22;1369;53.216;10.396;2023-06-10T15:37:49;29.30;83.40
2723;DHT22;1369;53.216;10.396;2023-06-10T15:40:14;29.40;82.30
2723;DHT22;1369;53.216;10.396;2023-06-10T15:42:40;29.30;81.70
2723;DHT22;1369;53.216;10.396;2023-06-10T15:45:06;29.30;83.50
2723;DHT22;1369;53.216;10.396;2023-06-10T15:47:31;29.20;82.50
2723;DHT22;1369;53.216;10.396;2023-06-10T15:49:57;29.10;84.00
2723;DHT22;1369;53.216;10.396;2023-06-10T15:52:22;29.30;85.20
2723;DHT22;1369;53.216;10.396;2023-06-10T15:54:48;29.40;86.50
2723;DHT22;1369;53.216;10.396;2023-06-10T15:57:13;29.60;89.00
2723;DHT22;1369;53.216;10.396;2023-06-10T15:59:39;29.90;90.20
2723;DHT22;1369;53.216;10.396;2023-06-10T16:02:05;30.10;90.00
2723;DHT22;1369;53.216;10.396;2023-06-10T16:04:31;30.10;83.70
2723;DHT22;1369;53.216;10.396;2023-06-10T16:06:56;30.10;87.10